createdAt,value
2023-02-15T00:00:14.876Z,98793.00
2023-02-15T00:02:42.799Z,98799.00
2023-02-15T00:05:10.068Z,98798.00
2023-02-15T00:07:37.208Z,98751.00
2023-02-15T00:10:05.438Z,98744.00
2023-02-15T00:12:33.132Z,98768.00
2023-02-15T00:15:00.048Z,98769.00
2023-02-15T00:17:29.646Z,98755.00
2023-02-15T00:19:56.523Z,98759.00
2023-02-15T00:22:23.638Z,98798.00
2023-02-15T00:24:51.034Z,98804.00
2023-02-15T00:27:19.325Z,98793.00
2023-02-15T00:29:48.754Z,98796.00
2023-02-15T00:32:16.062Z,98803.00
2023-02-15T00:34:45.460Z,98768.00
2023-02-15T00:37:17.146Z,98773.00
2023-02-15T00:39:47.920Z,98709.00
2023-02-15T00:42:14.825Z,98775.00
2023-02-15T00:44:41.799Z,98768.00
2023-02-15T00:47:08.688Z,98766.00
2023-02-15T00:49:35.598Z,98788.00
2023-02-15T00:52:02.492Z,98765.00
2023-02-15T00:54:30.467Z,98770.00
2023-02-15T00:56:57.970Z,98764.00
2023-02-15T00:59:24.902Z,98767.00
2023-02-15T01:01:51.733Z,98761.00
2023-02-15T01:04:20.114Z,98769.00
2023-02-15T01:06:47.299Z,98739.00
2023-02-15T01:09:14.984Z,98764.00
2023-02-15T01:11:42.297Z,98779.00
2023-02-15T01:14:10.826Z,98744.00
2023-02-15T01:16:39.456Z,98770.00
2023-02-15T01:19:07.164Z,98769.00
2023-02-15T01:21:35.434Z,98770.00
2023-02-15T01:24:04.030Z,98763.00
2023-02-15T01:26:31.173Z,98732.00
2023-02-15T01:28:59.074Z,98773.00
2023-02-15T01:31:28.353Z,98760.00
2023-02-15T01:33:57.227Z,98764.00
2023-02-15T01:36:24.485Z,98752.00
2023-02-15T01:38:52.463Z,98764.00
2023-02-15T01:41:21.034Z,98740.00
2023-02-15T01:44:03.139Z,98757.00
2023-02-15T01:46:41.058Z,98740.00
2023-02-15T01:49:20.964Z,98721.00
2023-02-15T01:51:53.813Z,98744.00
2023-02-15T01:54:31.729Z,98739.00
2023-02-15T01:57:05.950Z,98741.00
2023-02-15T01:59:37.116Z,98727.00
2023-02-15T02:02:08.457Z,98742.00
2023-02-15T02:04:49.979Z,98710.00
2023-02-15T02:07:24.039Z,98719.00
2023-02-15T02:09:51.288Z,98723.00
2023-02-15T02:12:21.831Z,98711.00
2023-02-15T02:14:50.793Z,98700.00
2023-02-15T02:17:54.282Z,98711.00
2023-02-15T02:20:44.136Z,98706.00
2023-02-15T02:23:19.874Z,98708.00
2023-02-15T02:26:21.882Z,98707.00
2023-02-15T02:29:28.526Z,98714.00
2023-02-15T02:32:29.838Z,98703.00
2023-02-15T02:35:18.826Z,98693.00
2023-02-15T02:38:11.933Z,98706.00
2023-02-15T02:41:27.550Z,98687.00
2023-02-15T02:44:35.931Z,98673.00
2023-02-15T02:47:19.569Z,98680.00
2023-02-15T02:49:46.462Z,98675.00
2023-02-15T02:52:47.305Z,98661.00
2023-02-15T02:55:25.477Z,98646.00
2023-02-15T02:58:14.745Z,98661.00
2023-02-15T03:00:56.444Z,98672.00
2023-02-15T03:03:37.495Z,98670.00
2023-02-15T03:06:36.065Z,98660.00
2023-02-15T03:09:23.171Z,98646.00
2023-02-15T03:11:50.817Z,98656.00
2023-02-15T03:14:20.733Z,98656.00
2023-02-15T03:16:52.341Z,98654.00
2023-02-15T03:19:29.597Z,98654.00
2023-02-15T03:22:15.157Z,98669.00
2023-02-15T03:25:20.722Z,98640.00
2023-02-15T03:27:55.914Z,98630.00
2023-02-15T03:30:25.523Z,98662.00
2023-02-15T03:32:58.692Z,98642.00
2023-02-15T03:35:34.678Z,98653.00
2023-02-15T03:38:07.704Z,98648.00
2023-02-15T03:41:04.797Z,98643.00
2023-02-15T03:43:59.638Z,98649.00
2023-02-15T03:46:34.269Z,98649.00
2023-02-15T03:49:25.154Z,98634.00
2023-02-15T03:51:55.544Z,98646.00
2023-02-15T03:54:44.144Z,98641.00
2023-02-15T03:57:39.184Z,98643.00
2023-02-15T04:00:44.746Z,98653.00
2023-02-15T04:03:40.863Z,98622.00
2023-02-15T04:06:07.810Z,98653.00
2023-02-15T04:08:53.051Z,98635.00
2023-02-15T04:11:20.143Z,98649.00
2023-02-15T04:13:47.105Z,98634.00
2023-02-15T04:16:14.306Z,98623.00
2023-02-15T04:19:03.178Z,98636.00
2023-02-15T04:21:50.001Z,98630.00
2023-02-15T04:24:36.400Z,98611.00
2023-02-15T04:27:05.562Z,98633.00
2023-02-15T04:29:33.230Z,98652.00
2023-02-15T04:32:02.667Z,98634.00
2023-02-15T04:34:29.869Z,98633.00
2023-02-15T04:36:56.951Z,98651.00
2023-02-15T04:39:24.371Z,98608.00
2023-02-15T04:41:51.184Z,98627.00
2023-02-15T04:44:18.266Z,98623.00
2023-02-15T04:46:45.227Z,98624.00
2023-02-15T04:49:12.491Z,98625.00
2023-02-15T04:51:39.369Z,98624.00
2023-02-15T04:54:06.276Z,98620.00
2023-02-15T04:56:34.797Z,98631.00
2023-02-15T04:59:02.009Z,98622.00
2023-02-15T05:01:29.117Z,98621.00
2023-02-15T05:03:56.147Z,98601.00
2023-02-15T05:06:23.105Z,98616.00
2023-02-15T05:08:50.235Z,98602.00
2023-02-15T05:11:17.328Z,98621.00
2023-02-15T05:13:44.228Z,98596.00
2023-02-15T05:16:11.224Z,98625.00
2023-02-15T05:18:38.190Z,98599.00
2023-02-15T05:21:05.735Z,98629.00
2023-02-15T05:23:32.532Z,98627.00
2023-02-15T05:26:17.854Z,98609.00
2023-02-15T05:28:45.006Z,98609.00
2023-02-15T05:31:19.517Z,98618.00
2023-02-15T05:33:47.599Z,98591.00
2023-02-15T05:36:14.888Z,98627.00
2023-02-15T05:38:41.747Z,98602.00
2023-02-15T05:41:11.816Z,98614.00
2023-02-15T05:43:39.894Z,98630.00
2023-02-15T05:46:09.072Z,98618.00
2023-02-15T05:48:36.350Z,98614.00
2023-02-15T05:51:10.441Z,98611.00
2023-02-15T05:53:39.926Z,98628.00
2023-02-15T05:56:10.121Z,98576.00
2023-02-15T05:58:40.414Z,98614.00
2023-02-15T06:01:16.582Z,98633.00
2023-02-15T06:03:44.188Z,98561.00
2023-02-15T06:06:11.829Z,98640.00
2023-02-15T06:08:39.299Z,98615.00
2023-02-15T06:11:07.013Z,98621.00
2023-02-15T06:13:38.397Z,98628.00
2023-02-15T06:16:06.975Z,98616.00
2023-02-15T06:18:34.484Z,98635.00
2023-02-15T06:21:01.288Z,98608.00
2023-02-15T06:23:28.229Z,98601.00
2023-02-15T06:25:55.154Z,98597.00
2023-02-15T06:28:23.066Z,98623.00
2023-02-15T06:30:49.954Z,98594.00
2023-02-15T06:33:17.066Z,98608.00
2023-02-15T06:35:44.300Z,98602.00
2023-02-15T06:38:11.620Z,98611.00
2023-02-15T06:40:38.761Z,98616.00
2023-02-15T06:43:05.641Z,98636.00
2023-02-15T06:45:32.554Z,98626.00
2023-02-15T06:47:59.341Z,98612.00
2023-02-15T06:50:26.170Z,98640.00
2023-02-15T06:52:59.986Z,98628.00
2023-02-15T06:55:27.172Z,98626.00
2023-02-15T06:57:54.412Z,98630.00
2023-02-15T07:00:23.381Z,98631.00
2023-02-15T07:02:58.598Z,98642.00
2023-02-15T07:05:31.638Z,98653.00
2023-02-15T07:08:00.622Z,98636.00
2023-02-15T07:10:28.940Z,98615.00
2023-02-15T07:12:56.354Z,98641.00
2023-02-15T07:15:23.610Z,98618.00
2023-02-15T07:17:50.760Z,98619.00
2023-02-15T07:20:21.911Z,98633.00
2023-02-15T07:22:49.696Z,98614.00
2023-02-15T07:25:17.518Z,98615.00
2023-02-15T07:27:45.994Z,98602.00
2023-02-15T07:30:17.407Z,98637.00
2023-02-15T07:33:05.307Z,98614.00
2023-02-15T07:35:33.595Z,98609.00
2023-02-15T07:38:01.115Z,98621.00
2023-02-15T07:40:28.406Z,98600.00
2023-02-15T07:43:00.357Z,98622.00
2023-02-15T07:45:27.818Z,98614.00
2023-02-15T07:47:54.705Z,98604.00
2023-02-15T07:50:21.552Z,98600.00
2023-02-15T07:52:48.627Z,98605.00
2023-02-15T07:55:15.867Z,98613.00
2023-02-15T07:57:45.231Z,98600.00
2023-02-15T08:00:18.140Z,98613.00
2023-02-15T08:03:13.689Z,98601.00
2023-02-15T08:05:43.092Z,98612.00
2023-02-15T08:08:31.144Z,98596.00
2023-02-15T08:11:32.297Z,98590.00
2023-02-15T08:14:15.798Z,98581.00
2023-02-15T08:17:00.364Z,98588.00
2023-02-15T08:19:30.770Z,98569.00
2023-02-15T08:22:01.607Z,98580.00
2023-02-15T08:24:37.936Z,98560.00
2023-02-15T08:27:09.519Z,98548.00
2023-02-15T08:29:38.629Z,98529.00
2023-02-15T08:32:11.478Z,98508.00
2023-02-15T08:34:42.319Z,98567.00
2023-02-15T08:37:10.273Z,98526.00
2023-02-15T08:39:37.666Z,98573.00
2023-02-15T08:42:07.387Z,98571.00
2023-02-15T08:44:34.304Z,98556.00
2023-02-15T08:47:05.282Z,98556.00
2023-02-15T08:49:33.262Z,98571.00
2023-02-15T08:52:00.621Z,98561.00
2023-02-15T08:54:27.640Z,98554.00
2023-02-15T08:56:55.580Z,98504.00
2023-02-15T08:59:25.062Z,98500.00
2023-02-15T09:01:53.286Z,98549.00
2023-02-15T09:04:23.163Z,98551.00
2023-02-15T09:06:51.305Z,98490.00
2023-02-15T09:09:20.136Z,98531.00
2023-02-15T09:11:56.021Z,98554.00
2023-02-15T09:14:27.500Z,98537.00
2023-02-15T09:16:58.668Z,98523.00
2023-02-15T09:19:26.350Z,98515.00
2023-02-15T09:21:54.436Z,98530.00
2023-02-15T09:24:22.314Z,98482.00
2023-02-15T09:26:51.311Z,98522.00
2023-02-15T09:29:20.382Z,98529.00
2023-02-15T09:31:53.713Z,98528.00
2023-02-15T09:34:23.978Z,98483.00
2023-02-15T09:36:52.539Z,98466.00
2023-02-15T09:39:26.568Z,98534.00
2023-02-15T09:41:56.089Z,98524.00
2023-02-15T09:44:41.422Z,98524.00
2023-02-15T09:47:23.535Z,98522.00
2023-02-15T09:50:27.637Z,98523.00
2023-02-15T09:53:36.331Z,98528.00
2023-02-15T09:56:19.504Z,98493.00
2023-02-15T09:59:09.993Z,98526.00
2023-02-15T10:02:37.417Z,98504.00
2023-02-15T10:05:28.383Z,98528.00
2023-02-15T10:08:32.773Z,98525.00
2023-02-15T10:11:41.957Z,98522.00
2023-02-15T10:14:39.708Z,98542.00
2023-02-15T10:17:25.454Z,98537.00
2023-02-15T10:20:25.696Z,98527.00
2023-02-15T10:23:11.288Z,98550.00
2023-02-15T10:25:58.401Z,98548.00
2023-02-15T10:28:37.373Z,98539.00
2023-02-15T10:31:26.712Z,98535.00
2023-02-15T10:34:20.347Z,98540.00
2023-02-15T10:37:15.581Z,98529.00
2023-02-15T10:40:10.705Z,98526.00
2023-02-15T10:42:55.128Z,98541.00
2023-02-15T10:46:08.792Z,98536.00
2023-02-15T10:48:53.663Z,98520.00
2023-02-15T10:52:05.538Z,98518.00
2023-02-15T10:54:58.634Z,98515.00
2023-02-15T10:57:54.189Z,98501.00
2023-02-15T11:00:34.316Z,98509.00
2023-02-15T11:03:44.366Z,98512.00
2023-02-15T11:06:18.280Z,98495.00
2023-02-15T11:08:55.668Z,98506.00
2023-02-15T11:11:36.022Z,98509.00
2023-02-15T11:14:15.408Z,98496.00
2023-02-15T11:16:52.980Z,98489.00
2023-02-15T11:20:03.792Z,98486.00
2023-02-15T11:22:34.172Z,98497.00
2023-02-15T11:25:03.335Z,98490.00
2023-02-15T11:27:36.359Z,98481.00
2023-02-15T11:30:13.653Z,98495.00
2023-02-15T11:32:46.943Z,98492.00
2023-02-15T11:35:13.701Z,98484.00
2023-02-15T11:38:10.967Z,98475.00
2023-02-15T11:40:50.423Z,98475.00
2023-02-15T11:43:57.756Z,98476.00
2023-02-15T11:46:24.849Z,98456.00
2023-02-15T11:48:51.878Z,98466.00
2023-02-15T11:51:23.962Z,98453.00
2023-02-15T11:53:52.855Z,98467.00
2023-02-15T11:56:24.253Z,98462.00
2023-02-15T11:59:04.844Z,98451.00
2023-02-15T12:01:40.615Z,98455.00
2023-02-15T12:04:31.368Z,98425.00
2023-02-15T12:07:29.608Z,98425.00
2023-02-15T12:10:25.847Z,98422.00
2023-02-15T12:13:16.755Z,98429.00
2023-02-15T12:15:49.712Z,98433.00
2023-02-15T12:18:40.922Z,98437.00
2023-02-15T12:21:40.564Z,98427.00
2023-02-15T12:24:35.927Z,98430.00
2023-02-15T12:27:15.685Z,98426.00
2023-02-15T12:29:47.633Z,98430.00
2023-02-15T12:32:26.009Z,98425.00
2023-02-15T12:35:01.817Z,98420.00
2023-02-15T12:37:33.030Z,98400.00
2023-02-15T12:40:02.837Z,98405.00
2023-02-15T12:42:45.303Z,98417.00
2023-02-15T12:45:27.819Z,98418.00
2023-02-15T12:48:21.204Z,98409.00
2023-02-15T12:50:58.268Z,98410.00
2023-02-15T12:53:35.717Z,98391.00
2023-02-15T12:56:09.879Z,98396.00
2023-02-15T12:58:43.232Z,98416.00
2023-02-15T13:01:10.093Z,98406.00
2023-02-15T13:03:54.575Z,98389.00
2023-02-15T13:06:22.552Z,98393.00
2023-02-15T13:08:54.038Z,98395.00
2023-02-15T13:11:28.694Z,98382.00
2023-02-15T13:14:19.580Z,98386.00
2023-02-15T13:16:51.865Z,98385.00
2023-02-15T13:19:36.458Z,98378.00
2023-02-15T13:22:23.827Z,98365.00
2023-02-15T13:24:59.850Z,98381.00
2023-02-15T13:27:51.273Z,98368.00
2023-02-15T13:30:33.568Z,98350.00
2023-02-15T13:33:06.801Z,98375.00
2023-02-15T13:35:51.401Z,98372.00
2023-02-15T13:39:23.090Z,98365.00
2023-02-15T13:42:24.136Z,98369.00
2023-02-15T13:44:57.887Z,98368.00
2023-02-15T13:47:41.667Z,98361.00
2023-02-15T13:50:38.234Z,98361.00
2023-02-15T13:53:18.618Z,98363.00
2023-02-15T13:55:58.374Z,98361.00
2023-02-15T13:59:06.906Z,98362.00
2023-02-15T14:02:14.028Z,98337.00
2023-02-15T14:05:50.592Z,98349.00
2023-02-15T14:08:41.189Z,98348.00
2023-02-15T14:11:28.482Z,98340.00
2023-02-15T14:14:19.264Z,98334.00
2023-02-15T14:17:23.246Z,98326.00
2023-02-15T14:20:00.494Z,98326.00
2023-02-15T14:22:40.521Z,98322.00
2023-02-15T14:25:34.489Z,98320.00
2023-02-15T14:28:15.600Z,98328.00
2023-02-15T14:30:53.636Z,98335.00
2023-02-15T14:33:38.963Z,98326.00
2023-02-15T14:36:12.176Z,98324.00
2023-02-15T14:39:51.282Z,98320.00
2023-02-15T14:42:35.563Z,98325.00
2023-02-15T14:45:27.319Z,98324.00
2023-02-15T14:48:24.523Z,98325.00
2023-02-15T14:50:51.575Z,98329.00
2023-02-15T14:53:30.821Z,98323.00
2023-02-15T14:56:23.168Z,98335.00
2023-02-15T14:58:57.144Z,98335.00
2023-02-15T15:01:36.621Z,98326.00
2023-02-15T15:04:16.271Z,98322.00
2023-02-15T15:06:45.027Z,98336.00
2023-02-15T15:09:30.754Z,98343.00
2023-02-15T15:12:22.209Z,98335.00
2023-02-15T15:14:51.643Z,98328.00
2023-02-15T15:17:33.875Z,98331.00
2023-02-15T15:20:52.274Z,98344.00
2023-02-15T15:23:19.351Z,98325.00
2023-02-15T15:26:23.766Z,98329.00
2023-02-15T15:28:50.520Z,98335.00
2023-02-15T15:31:45.217Z,98320.00
2023-02-15T15:34:48.562Z,98324.00
2023-02-15T15:37:38.179Z,98322.00
2023-02-15T15:40:49.956Z,98310.00
2023-02-15T15:43:57.381Z,98310.00
2023-02-15T15:46:59.334Z,98306.00
2023-02-15T15:49:33.155Z,98326.00
2023-02-15T15:52:13.659Z,98324.00
2023-02-15T15:54:42.925Z,98303.00
2023-02-15T15:57:30.945Z,98312.00
2023-02-15T16:00:01.617Z,98321.00
2023-02-15T16:02:29.045Z,98315.00
2023-02-15T16:05:07.484Z,98316.00
2023-02-15T16:07:34.299Z,98319.00
2023-02-15T16:10:08.942Z,98328.00
2023-02-15T16:12:39.560Z,98339.00
2023-02-15T16:15:16.698Z,98333.00
2023-02-15T16:17:50.441Z,98341.00
2023-02-15T16:20:37.732Z,98344.00
2023-02-15T16:23:36.166Z,98347.00
2023-02-15T16:26:18.093Z,98344.00
2023-02-15T16:28:55.159Z,98348.00
2023-02-15T16:31:23.894Z,98341.00
2023-02-15T16:33:56.952Z,98334.00
2023-02-15T16:36:29.310Z,98335.00
2023-02-15T16:39:09.161Z,98351.00
2023-02-15T16:41:38.670Z,98343.00
2023-02-15T16:44:19.096Z,98330.00
2023-02-15T16:46:52.378Z,98347.00
2023-02-15T16:49:24.054Z,98363.00
2023-02-15T16:52:07.914Z,98340.00
2023-02-15T16:54:36.340Z,98341.00
2023-02-15T16:57:04.094Z,98360.00
2023-02-15T16:59:51.561Z,98335.00
2023-02-15T17:02:49.458Z,98347.00
2023-02-15T17:05:12.811Z,98367.00
2023-02-15T17:07:45.371Z,98370.00
2023-02-15T17:10:36.400Z,98363.00
2023-02-15T17:13:17.998Z,98357.00
2023-02-15T17:16:00.531Z,98362.00
2023-02-15T17:18:45.982Z,98356.00
2023-02-15T17:21:21.154Z,98359.00
2023-02-15T17:23:51.930Z,98356.00
2023-02-15T17:26:33.610Z,98359.00
2023-02-15T17:29:27.861Z,98371.00
2023-02-15T17:32:00.733Z,98365.00
2023-02-15T17:34:50.849Z,98356.00
2023-02-15T17:37:47.411Z,98361.00
2023-02-15T17:40:34.742Z,98344.00
2023-02-15T17:43:02.004Z,98366.00
2023-02-15T17:45:52.234Z,98339.00
2023-02-15T17:48:40.509Z,98319.00
2023-02-15T17:51:13.825Z,98358.00
2023-02-15T17:53:41.658Z,98350.00
2023-02-15T17:56:12.443Z,98377.00
2023-02-15T17:58:40.197Z,98363.00
2023-02-15T18:01:37.036Z,98341.00
2023-02-15T18:04:26.898Z,98348.00
2023-02-15T18:07:12.830Z,98339.00
2023-02-15T18:09:58.398Z,98374.00
2023-02-15T18:12:32.143Z,98372.00
2023-02-15T18:15:03.920Z,98365.00
2023-02-15T18:17:48.961Z,98375.00
2023-02-15T18:20:24.354Z,98365.00
2023-02-15T18:22:52.320Z,98351.00
2023-02-15T18:25:24.140Z,98335.00
2023-02-15T18:27:54.563Z,98318.00
2023-02-15T18:30:26.540Z,98349.00
2023-02-15T18:32:57.162Z,98343.00
2023-02-15T18:35:30.094Z,98363.00
2023-02-15T18:37:59.130Z,98335.00
2023-02-15T18:40:28.737Z,98358.00
2023-02-15T18:42:57.432Z,98360.00
2023-02-15T18:45:32.806Z,98336.00
2023-02-15T18:48:00.119Z,98315.00
2023-02-15T18:50:33.113Z,98335.00
2023-02-15T18:53:02.093Z,98399.00
2023-02-15T18:55:29.383Z,98366.00
2023-02-15T18:57:57.481Z,98360.00
2023-02-15T19:00:33.767Z,98380.00
2023-02-15T19:03:02.598Z,98400.00
2023-02-15T19:05:32.728Z,98375.00
2023-02-15T19:08:02.560Z,98376.00
2023-02-15T19:10:32.889Z,98374.00
2023-02-15T19:12:59.866Z,98372.00
2023-02-15T19:15:30.544Z,98389.00
2023-02-15T19:17:57.750Z,98389.00
2023-02-15T19:20:33.578Z,98393.00
2023-02-15T19:23:02.947Z,98376.00
2023-02-15T19:25:33.956Z,98399.00
2023-02-15T19:28:09.045Z,98405.00
2023-02-15T19:30:37.690Z,98375.00
2023-02-15T19:33:05.120Z,98354.00
2023-02-15T19:35:35.465Z,98395.00
2023-02-15T19:38:08.282Z,98404.00
2023-02-15T19:40:37.017Z,98392.00
2023-02-15T19:43:15.420Z,98412.00
2023-02-15T19:45:42.687Z,98426.00
2023-02-15T19:48:15.050Z,98391.00
2023-02-15T19:50:46.002Z,98372.00
2023-02-15T19:53:25.628Z,98421.00
2023-02-15T19:55:53.355Z,98369.00
2023-02-15T19:58:21.748Z,98421.00
2023-02-15T20:00:53.566Z,98419.00
2023-02-15T20:03:20.474Z,98388.00
2023-02-15T20:05:47.848Z,98366.00
2023-02-15T20:08:20.774Z,98429.00
2023-02-15T20:10:48.222Z,98382.00
2023-02-15T20:13:18.159Z,98395.00
2023-02-15T20:15:51.562Z,98421.00
2023-02-15T20:18:20.428Z,98428.00
2023-02-15T20:20:53.127Z,98407.00
2023-02-15T20:23:30.934Z,98424.00
2023-02-15T20:26:01.194Z,98427.00
2023-02-15T20:28:31.367Z,98426.00
2023-02-15T20:30:58.442Z,98424.00
2023-02-15T20:33:25.308Z,98430.00
2023-02-15T20:35:52.327Z,98438.00
2023-02-15T20:38:29.727Z,98432.00
2023-02-15T20:41:18.143Z,98444.00
2023-02-15T20:43:45.041Z,98418.00
2023-02-15T20:46:11.881Z,98416.00
2023-02-15T20:48:38.712Z,98420.00
2023-02-15T20:51:09.656Z,98427.00
2023-02-15T20:53:36.497Z,98429.00
2023-02-15T20:56:03.942Z,98425.00
2023-02-15T20:58:31.170Z,98408.00
2023-02-15T21:00:59.114Z,98416.00
2023-02-15T21:03:30.660Z,98419.00
2023-02-15T21:05:58.971Z,98415.00
2023-02-15T21:08:26.763Z,98414.00
2023-02-15T21:10:54.380Z,98421.00
2023-02-15T21:13:35.337Z,98417.00
2023-02-15T21:16:03.221Z,98410.00
2023-02-15T21:18:34.579Z,98405.00
2023-02-15T21:21:06.068Z,98400.00
2023-02-15T21:23:41.703Z,98401.00
2023-02-15T21:26:21.545Z,98401.00
2023-02-15T21:28:50.386Z,98410.00
2023-02-15T21:31:25.408Z,98418.00
2023-02-15T21:33:52.528Z,98415.00
2023-02-15T21:36:24.101Z,98415.00
2023-02-15T21:38:53.822Z,98420.00
2023-02-15T21:41:42.862Z,98426.00
2023-02-15T21:44:40.598Z,98417.00
2023-02-15T21:47:48.546Z,98421.00
2023-02-15T21:50:43.696Z,98417.00
2023-02-15T21:53:18.580Z,98414.00
2023-02-15T21:55:45.390Z,98399.00
2023-02-15T21:58:26.089Z,98410.00
2023-02-15T22:00:55.884Z,98419.00
2023-02-15T22:03:31.405Z,98418.00
2023-02-15T22:05:58.230Z,98414.00
2023-02-15T22:08:25.045Z,98410.00
2023-02-15T22:10:55.202Z,98410.00
2023-02-15T22:13:29.224Z,98425.00
2023-02-15T22:15:57.571Z,98422.00
2023-02-15T22:18:33.768Z,98427.00
2023-02-15T22:21:02.975Z,98421.00
2023-02-15T22:23:30.189Z,98416.00
2023-02-15T22:26:03.939Z,98429.00
2023-02-15T22:28:38.277Z,98423.00
2023-02-15T22:31:12.518Z,98423.00
2023-02-15T22:33:40.354Z,98429.00
2023-02-15T22:36:21.840Z,98428.00
2023-02-15T22:38:48.802Z,98426.00
2023-02-15T22:41:17.017Z,98429.00
2023-02-15T22:43:46.319Z,98431.00
2023-02-15T22:46:21.182Z,98433.00
2023-02-15T22:48:48.965Z,98428.00
2023-02-15T22:51:22.641Z,98420.00
2023-02-15T22:53:51.796Z,98424.00
2023-02-15T22:56:26.739Z,98430.00
2023-02-15T22:59:01.273Z,98412.00
2023-02-15T23:01:34.065Z,98415.00
2023-02-15T23:04:03.441Z,98416.00
2023-02-15T23:06:31.379Z,98415.00
2023-02-15T23:09:00.566Z,98413.00
2023-02-15T23:11:27.870Z,98412.00
2023-02-15T23:13:54.746Z,98393.00
2023-02-15T23:16:21.570Z,98407.00
2023-02-15T23:18:49.218Z,98405.00
2023-02-15T23:21:31.130Z,98400.00
2023-02-15T23:24:17.406Z,98394.00
2023-02-15T23:26:44.563Z,98389.00
2023-02-15T23:29:19.393Z,98404.00
2023-02-15T23:31:50.658Z,98407.00
2023-02-15T23:34:24.376Z,98399.00
2023-02-15T23:36:51.204Z,98397.00
2023-02-15T23:39:40.808Z,98400.00
2023-02-15T23:42:19.453Z,98396.00
2023-02-15T23:44:48.539Z,98403.00
2023-02-15T23:47:43.216Z,98418.00
2023-02-15T23:50:28.622Z,98411.00
2023-02-15T23:52:57.495Z,98415.00
2023-02-15T23:55:31.401Z,98408.00
2023-02-15T23:57:58.509Z,98416.00
